createdAt,value
2022-11-28T00:01:28.074Z,19.80
2022-11-28T00:03:54.947Z,12.25
2022-11-28T00:06:22.147Z,9.30
2022-11-28T00:08:49.254Z,11.00
2022-11-28T00:11:17.003Z,12.38
2022-11-28T00:13:44.937Z,9.05
2022-11-28T00:16:18.231Z,9.65
2022-11-28T00:18:45.221Z,9.95
2022-11-28T00:21:14.714Z,8.48
2022-11-28T00:23:43.491Z,11.00
2022-11-28T00:26:16.899Z,10.27
2022-11-28T00:28:43.891Z,13.80
2022-11-28T00:31:21.945Z,12.73
2022-11-28T00:33:49.205Z,8.43
2022-11-28T00:36:16.534Z,9.32
2022-11-28T00:38:43.717Z,9.25
2022-11-28T00:41:14.181Z,9.45
2022-11-28T00:43:42.335Z,9.73
2022-11-28T00:46:10.208Z,9.50
2022-11-28T00:48:37.339Z,10.60
2022-11-28T00:51:12.385Z,10.75
2022-11-28T00:53:42.017Z,10.70
2022-11-28T00:56:11.132Z,7.30
2022-11-28T00:58:39.771Z,11.38
2022-11-28T01:01:19.891Z,7.97
2022-11-28T01:03:47.347Z,11.68
2022-11-28T01:06:25.217Z,9.20
2022-11-28T01:08:52.650Z,11.32
2022-11-28T01:11:20.510Z,8.95
2022-11-28T01:13:48.078Z,10.77
2022-11-28T01:16:15.675Z,11.05
2022-11-28T01:18:42.751Z,8.05
2022-11-28T01:21:10.100Z,14.27
2022-11-28T01:23:37.406Z,7.93
2022-11-28T01:26:06.678Z,9.77
2022-11-28T01:28:34.996Z,8.85
2022-11-28T01:31:10.448Z,14.95
2022-11-28T01:33:38.058Z,14.20
2022-11-28T01:36:05.447Z,11.82
2022-11-28T01:38:33.776Z,9.75
2022-11-28T01:41:01.306Z,12.00
2022-11-28T01:43:28.212Z,10.05
2022-11-28T01:45:55.916Z,12.63
2022-11-28T01:48:33.084Z,9.10
2022-11-28T01:51:02.534Z,12.13
2022-11-28T01:53:31.855Z,11.93
2022-11-28T01:56:03.956Z,11.05
2022-11-28T01:58:32.707Z,14.20
2022-11-28T02:00:59.749Z,11.38
2022-11-28T02:03:34.441Z,10.60
2022-11-28T02:06:02.262Z,10.13
2022-11-28T02:08:34.300Z,9.25
2022-11-28T02:11:30.542Z,12.23
2022-11-28T02:14:09.538Z,12.00
2022-11-28T02:16:53.396Z,10.02
2022-11-28T02:19:39.001Z,9.55
2022-11-28T02:22:08.882Z,11.20
2022-11-28T02:24:35.732Z,12.20
2022-11-28T02:27:14.292Z,11.80
2022-11-28T02:30:02.792Z,16.38
2022-11-28T02:32:38.837Z,13.48
2022-11-28T02:35:17.661Z,10.52
2022-11-28T02:37:50.996Z,11.68
2022-11-28T02:40:17.858Z,11.25
2022-11-28T02:42:58.776Z,13.35
2022-11-28T02:45:46.948Z,13.70
2022-11-28T02:48:36.053Z,11.75
2022-11-28T02:51:13.747Z,12.40
2022-11-28T02:53:43.424Z,16.80
2022-11-28T02:56:11.749Z,10.45
2022-11-28T02:58:38.646Z,15.82
2022-11-28T03:01:12.695Z,10.93
2022-11-28T03:04:12.915Z,12.48
2022-11-28T03:06:53.294Z,11.43
2022-11-28T03:09:26.113Z,15.43
2022-11-28T03:12:19.647Z,10.52
2022-11-28T03:14:51.278Z,15.75
2022-11-28T03:17:18.106Z,15.05
2022-11-28T03:20:09.958Z,12.60
2022-11-28T03:22:59.806Z,15.50
2022-11-28T03:25:48.407Z,15.45
2022-11-28T03:28:43.908Z,12.63
2022-11-28T03:31:16.013Z,14.77
2022-11-28T03:33:49.057Z,12.48
2022-11-28T03:36:21.690Z,12.40
2022-11-28T03:38:54.280Z,13.30
2022-11-28T03:41:44.296Z,12.32
2022-11-28T03:44:17.221Z,11.25
2022-11-28T03:46:47.353Z,12.63
2022-11-28T03:49:19.562Z,12.32
2022-11-28T03:51:49.302Z,11.95
2022-11-28T03:54:32.399Z,9.65
2022-11-28T03:57:08.521Z,14.00
2022-11-28T03:59:43.232Z,12.27
2022-11-28T04:02:28.704Z,14.48
2022-11-28T04:05:15.957Z,13.93
2022-11-28T04:08:06.503Z,11.63
2022-11-28T04:10:43.970Z,14.98
2022-11-28T04:13:32.435Z,11.93
2022-11-28T04:16:05.581Z,13.15
2022-11-28T04:18:57.326Z,12.23
2022-11-28T04:21:41.613Z,10.35
2022-11-28T04:24:14.065Z,10.60
2022-11-28T04:26:55.253Z,10.20
2022-11-28T04:29:24.679Z,11.98
2022-11-28T04:31:56.237Z,9.93
2022-11-28T04:34:26.216Z,10.00
2022-11-28T04:36:55.489Z,11.13
2022-11-28T04:39:25.141Z,12.75
2022-11-28T04:41:56.606Z,14.73
2022-11-28T04:44:31.464Z,12.32
2022-11-28T04:46:58.803Z,12.40
2022-11-28T04:49:27.755Z,15.35
2022-11-28T04:52:04.664Z,8.13
2022-11-28T04:54:40.010Z,12.00
2022-11-28T04:59:52.401Z,10.77
2022-11-28T05:02:21.681Z,11.65
2022-11-28T05:04:48.629Z,10.80
2022-11-28T05:07:15.607Z,9.63
2022-11-28T05:09:42.588Z,16.35
2022-11-28T05:12:09.614Z,9.70
2022-11-28T05:14:36.524Z,10.45
2022-11-28T05:17:03.418Z,13.32
2022-11-28T05:19:30.316Z,10.27
2022-11-28T05:21:57.216Z,11.25
2022-11-28T05:24:27.946Z,13.98
2022-11-28T05:26:57.689Z,11.77
2022-11-28T05:29:25.623Z,12.70
2022-11-28T05:31:52.696Z,11.90
2022-11-28T05:34:19.621Z,15.63
2022-11-28T05:36:47.005Z,11.02
2022-11-28T05:39:13.862Z,11.43
2022-11-28T05:41:40.822Z,15.98
2022-11-28T05:44:07.730Z,17.33
2022-11-28T05:46:34.619Z,13.73
2022-11-28T05:49:01.966Z,13.13
2022-11-28T05:51:28.837Z,11.32
2022-11-28T05:53:55.909Z,11.77
2022-11-28T05:56:25.560Z,12.23
2022-11-28T05:58:54.059Z,13.55
2022-11-28T06:01:26.566Z,13.55
2022-11-28T06:04:00.012Z,11.43
2022-11-28T06:06:29.316Z,9.88
2022-11-28T06:08:56.538Z,13.38
2022-11-28T06:11:25.960Z,16.80
2022-11-28T06:13:53.333Z,12.73
2022-11-28T06:16:23.180Z,11.40
2022-11-28T06:18:58.930Z,15.05
2022-11-28T06:21:26.434Z,13.00
2022-11-28T06:23:53.784Z,11.32
2022-11-28T06:26:22.972Z,13.10
2022-11-28T06:28:50.600Z,12.68
2022-11-28T06:31:23.506Z,13.95
2022-11-28T06:33:51.546Z,15.27
2022-11-28T06:36:19.478Z,13.25
2022-11-28T06:38:47.213Z,12.90
2022-11-28T06:41:17.707Z,14.55
2022-11-28T06:43:44.880Z,15.48
2022-11-28T06:46:19.025Z,12.18
2022-11-28T06:48:47.519Z,16.88
2022-11-28T06:51:15.223Z,12.45
2022-11-28T06:53:42.819Z,12.95
2022-11-28T06:56:14.177Z,15.05
2022-11-28T06:58:42.179Z,14.90
2022-11-28T07:01:14.955Z,13.70
2022-11-28T07:03:42.312Z,17.20
2022-11-28T07:06:09.639Z,14.85
2022-11-28T07:08:37.270Z,14.10
2022-11-28T07:11:24.851Z,10.13
2022-11-28T07:13:54.594Z,16.70
2022-11-28T07:16:30.339Z,16.33
2022-11-28T07:18:58.294Z,13.95
2022-11-28T07:21:26.343Z,11.55
2022-11-28T07:23:53.561Z,15.68
2022-11-28T07:26:21.723Z,18.17
2022-11-28T07:28:49.857Z,18.35
2022-11-28T07:31:20.918Z,12.25
2022-11-28T07:33:50.178Z,13.75
2022-11-28T07:36:20.954Z,12.32
2022-11-28T07:38:55.046Z,12.80
2022-11-28T07:41:26.425Z,13.27
2022-11-28T07:43:56.923Z,11.75
2022-11-28T07:46:24.646Z,11.70
2022-11-28T07:48:52.011Z,11.55
2022-11-28T07:51:25.498Z,13.32
2022-11-28T07:53:52.915Z,10.77
2022-11-28T07:56:23.148Z,9.75
2022-11-28T07:58:50.275Z,12.07
2022-11-28T08:01:22.517Z,10.30
2022-11-28T08:03:49.901Z,16.77
2022-11-28T08:06:19.061Z,12.45
2022-11-28T08:08:47.420Z,11.77
2022-11-28T08:11:16.249Z,11.95
2022-11-28T08:13:44.125Z,9.70
2022-11-28T08:16:17.583Z,10.90
2022-11-28T08:18:45.451Z,16.05
2022-11-28T08:21:18.052Z,12.50
2022-11-28T08:23:47.944Z,11.05
2022-11-28T08:26:16.878Z,13.77
2022-11-28T08:28:44.371Z,10.10
2022-11-28T08:31:12.966Z,11.07
2022-11-28T08:33:40.309Z,12.60
2022-11-28T08:36:09.039Z,10.05
2022-11-28T08:38:36.350Z,11.90
2022-11-28T08:41:14.295Z,9.80
2022-11-28T08:43:41.814Z,13.55
2022-11-28T08:46:18.104Z,13.95
2022-11-28T08:48:45.062Z,12.60
2022-11-28T08:51:16.917Z,8.73
2022-11-28T08:53:48.660Z,11.05
2022-11-28T08:56:16.436Z,11.57
2022-11-28T08:58:43.293Z,11.32
2022-11-28T09:01:22.046Z,10.98
2022-11-28T09:03:49.556Z,8.63
2022-11-28T09:06:18.125Z,12.23
2022-11-28T09:08:45.605Z,11.40
2022-11-28T09:11:14.881Z,15.50
2022-11-28T09:13:42.165Z,11.98
2022-11-28T09:16:09.523Z,10.77
2022-11-28T09:18:36.514Z,10.52
2022-11-28T09:21:09.534Z,11.55
2022-11-28T09:23:37.914Z,21.38
2022-11-28T09:26:13.061Z,11.38
2022-11-28T09:28:39.974Z,11.90
2022-11-28T09:31:07.892Z,15.15
2022-11-28T09:33:35.876Z,9.98
2022-11-28T09:36:11.854Z,12.23
2022-11-28T09:38:38.843Z,13.82
2022-11-28T09:41:43.110Z,14.40
2022-11-28T09:44:22.370Z,14.75
2022-11-28T09:46:53.673Z,16.10
2022-11-28T09:49:41.079Z,31.52
2022-11-28T09:52:26.432Z,9.05
2022-11-28T09:55:05.560Z,14.98
2022-11-28T09:57:37.429Z,9.95
2022-11-28T10:00:06.310Z,9.63
2022-11-28T10:03:01.425Z,11.15
2022-11-28T10:05:46.228Z,11.02
2022-11-28T10:08:25.797Z,11.77
2022-11-28T10:11:21.141Z,8.18
2022-11-28T10:14:23.138Z,12.25
2022-11-28T10:17:01.954Z,11.23
2022-11-28T10:19:54.600Z,11.45
2022-11-28T10:22:45.647Z,12.70
2022-11-28T10:25:20.000Z,12.35
2022-11-28T10:27:49.244Z,12.02
2022-11-28T10:30:22.728Z,10.57
2022-11-28T10:33:17.146Z,11.88
2022-11-28T10:36:03.800Z,8.52
2022-11-28T10:38:34.837Z,13.40
2022-11-28T10:41:21.155Z,12.35
2022-11-28T10:44:08.166Z,14.55
2022-11-28T10:47:07.206Z,17.73
2022-11-28T10:49:58.537Z,16.08
2022-11-28T10:52:58.486Z,11.80
2022-11-28T10:56:11.581Z,13.40
2022-11-28T10:59:05.350Z,10.18
2022-11-28T11:01:37.988Z,14.07
2022-11-28T11:04:06.516Z,14.05
2022-11-28T11:06:41.812Z,13.35
2022-11-28T11:09:15.196Z,13.48
2022-11-28T11:11:57.729Z,15.13
2022-11-28T11:14:41.965Z,14.48
2022-11-28T11:17:26.652Z,16.45
2022-11-28T11:19:56.272Z,14.75
2022-11-28T11:22:32.067Z,15.43
2022-11-28T11:25:17.543Z,12.60
2022-11-28T11:27:50.669Z,15.43
2022-11-28T11:30:19.164Z,20.40
2022-11-28T11:32:51.594Z,17.92
2022-11-28T11:35:24.310Z,13.07
2022-11-28T11:37:51.916Z,18.73
2022-11-28T11:40:29.149Z,22.75
2022-11-28T11:42:59.076Z,15.75
2022-11-28T11:45:32.067Z,18.95
2022-11-28T11:47:59.429Z,19.15
2022-11-28T11:50:29.647Z,19.67
2022-11-28T11:53:14.214Z,19.08
2022-11-28T11:55:53.692Z,20.10
2022-11-28T11:58:25.439Z,14.02
2022-11-28T12:00:56.579Z,16.00
2022-11-28T12:03:31.197Z,15.20
2022-11-28T12:06:14.208Z,25.88
2022-11-28T12:08:54.000Z,20.20
2022-11-28T12:11:32.238Z,16.65
2022-11-28T12:14:05.192Z,19.13
2022-11-28T12:16:52.390Z,17.45
2022-11-28T12:19:44.265Z,18.13
2022-11-28T12:22:12.251Z,20.92
2022-11-28T12:25:03.357Z,17.75
2022-11-28T12:28:00.037Z,18.40
2022-11-28T12:30:33.645Z,16.48
2022-11-28T12:33:17.071Z,18.55
2022-11-28T12:36:04.425Z,16.55
2022-11-28T12:38:54.152Z,15.95
2022-11-28T12:41:42.383Z,15.55
2022-11-28T12:44:29.038Z,19.02
2022-11-28T12:47:19.973Z,18.10
2022-11-28T12:49:55.532Z,17.98
2022-11-28T12:52:44.598Z,13.68
2022-11-28T12:55:23.327Z,16.02
2022-11-28T12:58:22.650Z,15.23
2022-11-28T13:01:31.695Z,14.98
2022-11-28T13:04:10.426Z,15.02
2022-11-28T13:07:08.902Z,13.95
2022-11-28T13:09:42.559Z,11.60
2022-11-28T13:12:33.773Z,14.50
2022-11-28T13:15:08.635Z,22.35
2022-11-28T13:17:47.393Z,13.52
2022-11-28T13:20:26.403Z,13.13
2022-11-28T13:23:11.870Z,14.75
2022-11-28T13:25:44.137Z,17.80
2022-11-28T13:28:33.977Z,13.50
2022-11-28T13:31:12.566Z,11.57
2022-11-28T13:33:48.330Z,15.95
2022-11-28T13:39:23.264Z,14.20
2022-11-28T13:43:02.922Z,13.77
2022-11-28T13:45:34.995Z,11.38
2022-11-28T13:51:33.552Z,12.00
2022-11-28T13:54:19.423Z,13.77
2022-11-28T13:56:48.778Z,8.48
2022-11-28T13:59:25.443Z,11.48
2022-11-28T14:02:02.288Z,15.20
2022-11-28T14:04:32.219Z,12.73
2022-11-28T14:07:05.725Z,12.82
2022-11-28T14:09:47.706Z,10.90
2022-11-28T14:12:27.877Z,13.25
2022-11-28T14:15:19.505Z,11.00
2022-11-28T14:18:01.494Z,13.20
2022-11-28T14:20:39.595Z,12.40
2022-11-28T14:23:35.185Z,13.77
2022-11-28T14:26:02.336Z,16.27
2022-11-28T14:28:37.037Z,13.27
2022-11-28T14:31:07.903Z,12.55
2022-11-28T14:33:40.458Z,10.95
2022-11-28T14:36:31.669Z,14.50
2022-11-28T14:39:20.145Z,16.38
2022-11-28T14:42:06.667Z,11.55
2022-11-28T14:44:52.711Z,14.15
2022-11-28T14:47:35.061Z,10.80
2022-11-28T14:50:05.567Z,11.63
2022-11-28T14:52:39.450Z,10.70
2022-11-28T14:55:10.957Z,13.60
2022-11-28T14:58:04.038Z,14.50
2022-11-28T15:00:49.559Z,13.10
2022-11-28T15:03:16.517Z,19.00
2022-11-28T15:06:09.225Z,17.02
2022-11-28T15:08:48.333Z,14.43
2022-11-28T15:11:38.439Z,14.20
2022-11-28T15:14:10.983Z,11.80
2022-11-28T15:16:50.228Z,15.05
2022-11-28T15:19:31.047Z,17.08
2022-11-28T15:21:58.030Z,14.23
2022-11-28T15:24:36.567Z,16.17
2022-11-28T15:27:12.494Z,15.50
2022-11-28T15:29:39.825Z,14.60
2022-11-28T15:32:07.205Z,13.23
2022-11-28T15:34:36.334Z,15.20
2022-11-28T15:37:16.413Z,18.42
2022-11-28T15:39:47.607Z,16.77
2022-11-28T15:42:29.604Z,21.42
2022-11-28T15:45:07.875Z,14.18
2022-11-28T15:47:35.120Z,16.50
2022-11-28T15:50:22.219Z,15.32
2022-11-28T15:53:03.892Z,12.75
2022-11-28T15:55:32.810Z,14.25
2022-11-28T15:58:29.210Z,17.95
2022-11-28T16:03:56.803Z,13.85
2022-11-28T16:06:29.021Z,14.23
2022-11-28T16:09:23.572Z,15.35
2022-11-28T16:11:52.808Z,16.25
2022-11-28T16:14:29.970Z,17.52
2022-11-28T16:17:02.292Z,13.13
2022-11-28T16:19:33.149Z,15.02
2022-11-28T16:22:02.605Z,15.55
2022-11-28T16:24:45.289Z,13.30
2022-11-28T16:27:35.245Z,16.70
2022-11-28T16:30:23.614Z,11.35
2022-11-28T16:32:52.971Z,18.55
2022-11-28T16:35:30.311Z,13.63
2022-11-28T16:38:33.317Z,14.45
2022-11-28T16:41:03.736Z,15.93
2022-11-28T16:43:37.710Z,14.88
2022-11-28T16:46:06.932Z,15.45
2022-11-28T16:48:46.240Z,15.52
2022-11-28T16:51:13.396Z,14.07
2022-11-28T16:53:44.307Z,11.15
2022-11-28T16:56:29.331Z,12.35
2022-11-28T16:59:09.441Z,12.45
2022-11-28T17:01:36.629Z,13.80
2022-11-28T17:04:04.634Z,15.52
2022-11-28T17:06:39.292Z,13.80
2022-11-28T17:09:09.511Z,17.23
2022-11-28T17:11:40.188Z,12.75
2022-11-28T17:14:13.226Z,10.80
2022-11-28T17:16:41.748Z,13.75
2022-11-28T17:19:08.985Z,15.63
2022-11-28T17:22:05.447Z,16.90
2022-11-28T17:24:34.950Z,20.52
2022-11-28T17:27:02.633Z,17.80
2022-11-28T17:29:29.678Z,16.23
2022-11-28T17:31:58.946Z,15.77
2022-11-28T17:34:31.740Z,17.65
2022-11-28T17:37:00.458Z,17.63
2022-11-28T17:39:28.282Z,14.50
2022-11-28T17:41:56.937Z,19.00
2022-11-28T17:44:32.484Z,18.15
2022-11-28T17:47:01.280Z,18.85
2022-11-28T17:49:29.626Z,22.52
2022-11-28T17:51:57.602Z,21.70
2022-11-28T17:54:25.896Z,15.70
2022-11-28T17:56:55.795Z,16.67
2022-11-28T17:59:24.569Z,17.77
2022-11-28T18:01:52.123Z,19.55
2022-11-28T18:04:23.875Z,10.98
2022-11-28T18:06:50.839Z,18.55
2022-11-28T18:09:17.960Z,19.40
2022-11-28T18:11:46.941Z,17.65
2022-11-28T18:14:14.715Z,19.70
2022-11-28T18:16:44.061Z,20.15
2022-11-28T18:19:11.340Z,17.85
2022-11-28T18:21:39.025Z,15.88
2022-11-28T18:24:06.238Z,20.90
2022-11-28T18:26:33.348Z,21.13
2022-11-28T18:29:00.412Z,20.77
2022-11-28T18:31:29.052Z,21.50
2022-11-28T18:34:02.079Z,18.23
2022-11-28T18:36:36.170Z,25.23
2022-11-28T18:39:09.196Z,18.90
2022-11-28T18:41:36.350Z,24.42
2022-11-28T18:44:04.820Z,16.23
2022-11-28T18:46:33.212Z,18.33
2022-11-28T18:49:00.799Z,22.27
2022-11-28T18:51:30.118Z,25.45
2022-11-28T18:53:58.679Z,19.92
2022-11-28T18:56:26.497Z,24.08
2022-11-28T18:58:55.235Z,20.13
2022-11-28T19:01:29.162Z,18.80
2022-11-28T19:04:02.161Z,18.85
2022-11-28T19:06:30.193Z,21.63
2022-11-28T19:08:59.659Z,16.92
2022-11-28T19:11:28.722Z,19.52
2022-11-28T19:13:57.299Z,18.02
2022-11-28T19:16:26.884Z,20.00
2022-11-28T19:18:55.673Z,19.33
2022-11-28T19:21:28.378Z,18.73
2022-11-28T19:23:56.973Z,18.50
2022-11-28T19:26:26.821Z,20.33
2022-11-28T19:28:54.450Z,19.67
2022-11-28T19:31:27.316Z,19.08
2022-11-28T19:34:02.243Z,14.35
2022-11-28T19:36:36.493Z,20.08
2022-11-28T19:39:05.236Z,14.98
2022-11-28T19:41:32.700Z,17.95
2022-11-28T19:44:00.483Z,16.30
2022-11-28T19:46:35.041Z,16.45
2022-11-28T19:49:05.219Z,21.90
2022-11-28T19:51:32.289Z,20.38
2022-11-28T19:54:03.593Z,16.73
2022-11-28T19:56:32.495Z,17.17
2022-11-28T19:58:59.719Z,20.50
2022-11-28T20:01:28.346Z,16.23
2022-11-28T20:03:56.057Z,16.25
2022-11-28T20:06:25.816Z,20.60
2022-11-28T20:08:54.633Z,14.20
2022-11-28T20:11:25.977Z,14.82
2022-11-28T20:14:03.925Z,17.98
2022-11-28T20:16:32.568Z,16.23
2022-11-28T20:19:00.800Z,16.83
2022-11-28T20:21:29.087Z,21.42
2022-11-28T20:24:02.756Z,18.95
2022-11-28T20:26:30.911Z,18.55
2022-11-28T20:28:58.322Z,20.25
2022-11-28T20:31:28.342Z,17.38
2022-11-28T20:33:55.288Z,16.90
2022-11-28T20:36:24.788Z,20.27
2022-11-28T20:38:53.328Z,16.23
2022-11-28T20:41:22.822Z,15.63
2022-11-28T20:43:49.916Z,15.25
2022-11-28T20:46:27.533Z,18.25
2022-11-28T20:48:56.432Z,18.92
2022-11-28T20:51:25.931Z,19.00
2022-11-28T20:53:53.725Z,16.58
2022-11-28T20:56:26.418Z,19.83
2022-11-28T20:58:53.328Z,18.55
2022-11-28T21:01:22.637Z,17.00
2022-11-28T21:03:50.524Z,17.17
2022-11-28T21:06:18.370Z,18.80
2022-11-28T21:08:45.539Z,16.17
2022-11-28T21:11:30.954Z,20.27
2022-11-28T21:14:02.947Z,16.02
2022-11-28T21:16:31.753Z,20.58
2022-11-28T21:19:06.263Z,20.10
2022-11-28T21:21:35.221Z,19.13
2022-11-28T21:24:05.005Z,17.65
2022-11-28T21:26:37.631Z,18.23
2022-11-28T21:29:09.129Z,18.00
2022-11-28T21:31:40.123Z,14.27
2022-11-28T21:34:07.093Z,20.23
2022-11-28T21:36:34.007Z,16.42
2022-11-28T21:39:01.638Z,19.15
2022-11-28T21:41:32.916Z,20.30
2022-11-28T21:44:00.543Z,15.43
2022-11-28T21:46:28.635Z,19.83
2022-11-28T21:48:57.836Z,15.93
2022-11-28T21:51:26.016Z,16.33
2022-11-28T21:53:57.528Z,17.58
2022-11-28T21:56:25.119Z,19.65
2022-11-28T21:58:53.480Z,16.17
2022-11-28T22:01:21.495Z,19.60
2022-11-28T22:03:48.953Z,17.42
2022-11-28T22:06:26.943Z,18.75
2022-11-28T22:08:55.096Z,19.75
2022-11-28T22:11:22.803Z,26.10
2022-11-28T22:13:51.194Z,20.33
2022-11-28T22:16:23.912Z,17.63
2022-11-28T22:18:52.723Z,25.75
2022-11-28T22:21:50.718Z,16.40
2022-11-28T22:24:08.232Z,16.98
2022-11-28T22:26:35.642Z,16.33
2022-11-28T22:29:04.316Z,15.90
2022-11-28T22:31:33.143Z,19.70
2022-11-28T22:34:00.209Z,14.80
2022-11-28T22:36:27.649Z,15.27
2022-11-28T22:38:57.187Z,12.80
2022-11-28T22:41:29.373Z,16.83
2022-11-28T22:44:01.023Z,15.77
2022-11-28T22:46:30.603Z,14.95
2022-11-28T22:49:00.693Z,18.50
2022-11-28T22:51:29.329Z,12.50
2022-11-28T22:54:01.393Z,11.00
2022-11-28T22:56:31.542Z,13.15
2022-11-28T22:58:59.778Z,9.82
2022-11-28T23:01:30.054Z,10.40
2022-11-28T23:03:58.017Z,15.13
2022-11-28T23:06:30.668Z,12.38
2022-11-28T23:08:59.698Z,9.75
2022-11-28T23:11:31.026Z,10.40
2022-11-28T23:13:59.170Z,9.07
2022-11-28T23:16:30.200Z,9.75
2022-11-28T23:18:59.654Z,9.70
2022-11-28T23:21:30.429Z,11.38
2022-11-28T23:23:58.485Z,9.40
2022-11-28T23:26:28.993Z,12.23
2022-11-28T23:28:58.059Z,10.05
2022-11-28T23:31:27.867Z,7.88
2022-11-28T23:33:55.216Z,8.13
2022-11-28T23:36:22.539Z,8.63
2022-11-28T23:39:00.974Z,7.38
2022-11-28T23:41:29.265Z,8.32
2022-11-28T23:43:57.136Z,8.48
2022-11-28T23:46:25.647Z,8.27
2022-11-28T23:48:52.935Z,6.13
2022-11-28T23:51:21.940Z,7.72
2022-11-28T23:53:50.151Z,5.80
2022-11-28T23:56:21.343Z,7.53
2022-11-28T23:58:48.771Z,7.32
